createdAt,value
2018-06-25T00:01:47.464Z,16.92
2018-06-25T00:04:13.542Z,16.96
2018-06-25T00:06:39.614Z,16.98
2018-06-25T00:09:05.646Z,16.93
2018-06-25T00:11:31.643Z,16.86
2018-06-25T00:13:57.638Z,16.84
2018-06-25T00:16:23.665Z,16.79
2018-06-25T00:18:49.700Z,16.86
2018-06-25T00:21:15.765Z,16.83
2018-06-25T00:23:42.655Z,16.80
2018-06-25T00:26:08.706Z,16.85
2018-06-25T00:28:34.730Z,16.80
2018-06-25T00:31:00.769Z,16.84
2018-06-25T00:33:27.779Z,16.90
2018-06-25T00:35:53.834Z,16.93
2018-06-25T00:38:20.716Z,16.87
2018-06-25T00:40:46.775Z,16.92
2018-06-25T00:43:12.772Z,16.88
2018-06-25T00:45:41.078Z,16.82
2018-06-25T00:48:07.060Z,16.85
2018-06-25T00:50:33.108Z,16.79
2018-06-25T00:52:59.171Z,16.79
2018-06-25T00:55:25.157Z,16.72
2018-06-25T00:57:51.154Z,16.69
2018-06-25T01:00:17.145Z,16.77
2018-06-25T01:02:43.172Z,16.78
2018-06-25T01:05:09.144Z,16.79
2018-06-25T01:07:35.141Z,16.81
2018-06-25T01:10:01.159Z,16.78
2018-06-25T01:12:27.880Z,16.82
2018-06-25T01:14:53.857Z,16.73
2018-06-25T01:17:19.882Z,16.72
2018-06-25T01:19:45.870Z,16.74
2018-06-25T01:22:13.920Z,16.70
2018-06-25T01:24:39.952Z,16.63
2018-06-25T01:27:06.007Z,16.71
2018-06-25T01:29:32.019Z,16.74
2018-06-25T01:31:58.059Z,16.67
2018-06-25T01:34:24.128Z,16.62
2018-06-25T01:36:51.070Z,16.83
2018-06-25T01:39:17.169Z,16.92
2018-06-25T01:41:43.302Z,16.90
2018-06-25T01:44:10.124Z,16.91
2018-06-25T01:46:36.144Z,16.93
2018-06-25T01:49:02.211Z,16.96
2018-06-25T01:51:28.225Z,16.93
2018-06-25T01:53:54.202Z,16.91
2018-06-25T01:56:20.226Z,16.90
2018-06-25T01:58:46.274Z,16.87
2018-06-25T02:01:12.348Z,16.87
2018-06-25T02:03:38.367Z,16.88
2018-06-25T02:06:04.449Z,16.68
2018-06-25T02:08:30.494Z,16.74
2018-06-25T02:10:56.600Z,16.76
2018-06-25T02:13:22.624Z,16.83
2018-06-25T02:15:48.664Z,16.75
2018-06-25T02:18:14.719Z,16.79
2018-06-25T02:20:40.775Z,16.92
2018-06-25T02:23:06.842Z,16.87
2018-06-25T02:25:32.862Z,16.78
2018-06-25T02:27:58.890Z,16.90
2018-06-25T02:30:24.896Z,16.72
2018-06-25T02:32:50.959Z,16.75
2018-06-25T02:35:17.013Z,16.86
2018-06-25T02:37:43.045Z,16.83
2018-06-25T02:40:09.105Z,16.87
2018-06-25T02:42:35.094Z,16.87
2018-06-25T02:45:01.128Z,16.89
2018-06-25T02:47:27.119Z,16.88
2018-06-25T02:49:53.169Z,16.82
2018-06-25T02:52:19.193Z,16.85
2018-06-25T02:54:45.195Z,16.77
2018-06-25T02:57:11.160Z,16.87
2018-06-25T02:59:37.142Z,16.81
2018-06-25T03:02:04.796Z,16.69
2018-06-25T03:04:30.818Z,16.72
2018-06-25T03:06:56.855Z,16.80
2018-06-25T03:09:28.725Z,16.88
2018-06-25T03:11:54.975Z,16.94
2018-06-25T03:14:21.018Z,16.92
2018-06-25T03:16:47.126Z,16.92
2018-06-25T03:19:13.190Z,16.91
2018-06-25T03:21:39.224Z,16.79
2018-06-25T03:24:05.342Z,16.81
2018-06-25T03:26:31.489Z,16.89
2018-06-25T03:28:57.532Z,16.86
2018-06-25T03:39:50.708Z,16.85
2018-06-25T03:42:17.040Z,16.96
2018-06-25T03:44:44.912Z,16.90
2018-06-25T03:50:00.186Z,16.85
2018-06-25T03:54:57.506Z,16.88
2018-06-25T03:57:23.658Z,16.79
2018-06-25T03:59:49.719Z,16.84
2018-06-25T04:02:15.754Z,16.84
2018-06-25T04:04:41.717Z,16.96
2018-06-25T04:07:07.796Z,17.01
2018-06-25T04:09:33.789Z,17.05
2018-06-25T04:11:59.797Z,17.05
2018-06-25T04:14:25.800Z,17.01
2018-06-25T04:16:51.855Z,16.99
2018-06-25T04:19:17.913Z,16.99
2018-06-25T04:21:43.912Z,17.01
2018-06-25T04:24:09.908Z,17.03
2018-06-25T04:26:35.982Z,17.05
2018-06-25T04:29:01.960Z,16.99
2018-06-25T04:31:27.946Z,16.97
2018-06-25T04:33:53.959Z,17.04
2018-06-25T04:36:20.247Z,16.91
2018-06-25T04:38:46.262Z,16.98
2018-06-25T04:41:12.298Z,17.03
2018-06-25T04:43:38.414Z,17.06
2018-06-25T04:46:04.480Z,17.07
2018-06-25T04:48:31.489Z,17.09
2018-06-25T04:50:57.571Z,17.09
2018-06-25T04:53:23.586Z,17.09
2018-06-25T04:55:49.553Z,17.17
2018-06-25T04:58:15.552Z,17.29
2018-06-25T05:00:41.541Z,17.29
2018-06-25T05:03:07.725Z,17.27
2018-06-25T05:05:33.799Z,17.18
2018-06-25T05:11:16.189Z,17.22
2018-06-25T05:16:16.796Z,17.17
2018-06-25T05:18:42.778Z,17.10
2018-06-25T05:21:08.780Z,17.12
2018-06-25T05:23:34.864Z,17.12
2018-06-25T05:26:00.785Z,17.23
2018-06-25T05:28:26.778Z,16.01
2018-06-25T05:30:52.822Z,17.15
2018-06-25T05:33:18.849Z,17.26
2018-06-25T05:35:44.829Z,17.28
2018-06-25T05:38:10.834Z,17.38
2018-06-25T05:40:36.877Z,17.35
2018-06-25T05:43:02.868Z,17.36
2018-06-25T05:45:28.904Z,17.31
2018-06-25T05:47:54.893Z,17.19
2018-06-25T05:50:20.943Z,17.22
2018-06-25T05:52:46.945Z,17.24
2018-06-25T05:55:13.598Z,17.19
2018-06-25T05:57:39.591Z,17.16
2018-06-25T06:00:05.618Z,17.26
2018-06-25T06:02:31.630Z,17.41
2018-06-25T06:04:57.645Z,17.50
2018-06-25T06:07:23.711Z,17.49
2018-06-25T06:09:49.775Z,17.46
2018-06-25T06:12:15.832Z,17.53
2018-06-25T06:14:42.000Z,17.69
2018-06-25T06:17:07.938Z,17.79
2018-06-25T06:19:33.912Z,17.75
2018-06-25T06:24:32.813Z,17.83
2018-06-25T06:26:58.804Z,18.21
2018-06-25T06:29:24.797Z,18.39
2018-06-25T06:31:50.841Z,18.47
2018-06-25T06:34:16.839Z,18.64
2018-06-25T06:36:42.768Z,18.45
2018-06-25T06:39:08.740Z,18.39
2018-06-25T06:41:34.722Z,19.07
2018-06-25T06:44:00.791Z,19.71
2018-06-25T06:46:26.775Z,20.13
2018-06-25T06:48:52.777Z,20.38
2018-06-25T06:51:18.799Z,20.37
2018-06-25T06:53:44.834Z,19.89
2018-06-25T06:56:10.826Z,19.65
2018-06-25T06:58:36.835Z,19.69
2018-06-25T07:01:02.797Z,19.44
2018-06-25T07:03:28.827Z,19.46
2018-06-25T07:05:54.892Z,19.29
2018-06-25T07:08:20.872Z,19.22
2018-06-25T07:10:46.919Z,19.03
2018-06-25T07:13:12.948Z,18.97
2018-06-25T07:15:38.968Z,18.93
2018-06-25T07:18:04.921Z,20.03
2018-06-25T07:20:30.981Z,20.73
2018-06-25T07:22:56.937Z,21.07
2018-06-25T07:25:22.910Z,20.45
2018-06-25T07:27:48.910Z,20.10
2018-06-25T07:30:15.019Z,20.14
2018-06-25T07:32:41.037Z,19.99
2018-06-25T07:35:07.041Z,19.97
2018-06-25T07:37:33.031Z,19.94
2018-06-25T07:39:59.127Z,20.09
2018-06-25T07:42:25.154Z,19.81
2018-06-25T07:44:51.276Z,19.63
2018-06-25T07:47:17.400Z,19.61
2018-06-25T07:49:43.365Z,19.50
2018-06-25T07:52:09.349Z,19.43
2018-06-25T07:54:35.356Z,19.33
2018-06-25T07:57:02.092Z,19.34
2018-06-25T07:59:28.085Z,19.29
2018-06-25T08:01:54.114Z,19.25
2018-06-25T08:04:20.103Z,19.23
2018-06-25T08:06:46.054Z,19.21
2018-06-25T08:09:12.150Z,19.13
2018-06-25T08:11:38.168Z,19.12
2018-06-25T08:14:04.248Z,19.05
2018-06-25T08:16:30.284Z,19.05
2018-06-25T08:18:56.403Z,19.06
2018-06-25T08:21:22.401Z,19.08
2018-06-25T08:23:48.453Z,19.17
2018-06-25T08:26:14.421Z,19.11
2018-06-25T08:28:40.406Z,19.07
2018-06-25T08:31:06.393Z,19.09
2018-06-25T08:33:32.379Z,19.04
2018-06-25T08:35:58.408Z,19.03
2018-06-25T08:38:24.470Z,19.06
2018-06-25T08:40:50.512Z,19.10
2018-06-25T08:43:16.568Z,19.03
2018-06-25T08:45:42.602Z,19.04
2018-06-25T08:48:08.622Z,18.99
2018-06-25T08:50:34.658Z,18.98
2018-06-25T08:53:00.638Z,18.94
2018-06-25T08:55:26.588Z,18.90
2018-06-25T08:57:52.615Z,18.92
2018-06-25T09:00:18.635Z,18.91
2018-06-25T09:02:44.728Z,18.89
2018-06-25T09:05:10.726Z,18.95
2018-06-25T09:07:36.710Z,18.93
2018-06-25T09:10:02.754Z,18.98
2018-06-25T09:12:28.761Z,19.00
2018-06-25T09:14:54.763Z,19.02
2018-06-25T09:17:20.775Z,19.01
2018-06-25T09:19:46.769Z,18.98
2018-06-25T09:22:12.818Z,18.94
2018-06-25T09:24:38.746Z,18.91
2018-06-25T09:27:04.712Z,18.94
2018-06-25T09:29:30.729Z,18.93
2018-06-25T09:31:56.775Z,18.95
2018-06-25T09:34:22.771Z,18.95
2018-06-25T09:36:48.775Z,19.00
2018-06-25T09:39:14.778Z,18.96
2018-06-25T09:41:41.463Z,18.99
2018-06-25T09:44:07.304Z,19.01
2018-06-25T09:46:33.297Z,19.06
2018-06-25T09:48:59.321Z,19.07
2018-06-25T09:51:25.339Z,19.11
2018-06-25T09:53:51.336Z,19.15
2018-06-25T09:56:17.326Z,19.14
2018-06-25T09:58:43.341Z,19.08
2018-06-25T10:01:09.323Z,19.07
2018-06-25T10:03:35.426Z,19.05
2018-06-25T10:06:01.457Z,19.08
2018-06-25T10:08:27.518Z,19.12
2018-06-25T10:10:53.496Z,19.12
2018-06-25T10:13:19.532Z,19.07
2018-06-25T10:15:45.509Z,19.02
2018-06-25T10:18:11.530Z,19.06
2018-06-25T10:20:37.596Z,19.02
2018-06-25T10:23:03.679Z,19.00
2018-06-25T10:25:29.642Z,19.00
2018-06-25T10:27:55.648Z,18.94
2018-06-25T10:30:22.439Z,18.93
2018-06-25T10:32:48.413Z,18.87
2018-06-25T10:35:14.431Z,18.88
2018-06-25T10:37:40.439Z,18.87
2018-06-25T10:40:06.470Z,18.88
2018-06-25T10:42:32.602Z,18.87
2018-06-25T10:44:58.656Z,18.92
2018-06-25T10:47:24.685Z,18.97
2018-06-25T10:49:50.683Z,18.98
2018-06-25T10:52:16.736Z,19.01
2018-06-25T10:54:42.713Z,19.02
2018-06-25T10:57:08.700Z,19.04
2018-06-25T10:59:34.761Z,19.10
2018-06-25T11:02:00.787Z,19.13
2018-06-25T11:04:26.851Z,19.16
2018-06-25T11:06:52.873Z,19.17
2018-06-25T11:09:18.894Z,19.19
2018-06-25T11:11:44.906Z,19.21
2018-06-25T11:14:11.098Z,19.24
2018-06-25T11:16:37.125Z,19.21
2018-06-25T11:19:03.201Z,19.21
2018-06-25T11:21:29.198Z,19.24
2018-06-25T11:23:55.254Z,19.20
2018-06-25T11:26:21.306Z,19.25
2018-06-25T11:28:47.429Z,19.25
2018-06-25T11:31:13.507Z,19.24
2018-06-25T11:33:39.546Z,19.24
2018-06-25T11:36:05.581Z,19.26
2018-06-25T11:38:31.554Z,19.27
2018-06-25T11:40:57.565Z,19.25
2018-06-25T11:43:23.552Z,19.27
2018-06-25T11:45:49.621Z,19.25
2018-06-25T11:48:15.635Z,19.25
2018-06-25T11:50:41.979Z,19.28
2018-06-25T11:53:07.970Z,19.28
2018-06-25T11:55:33.956Z,19.27
2018-06-25T11:57:59.956Z,19.27
2018-06-25T12:00:25.977Z,19.25
2018-06-25T12:02:52.088Z,19.25
2018-06-25T12:05:17.984Z,19.25
2018-06-25T12:07:43.946Z,19.27
2018-06-25T12:10:09.996Z,19.26
2018-06-25T12:12:36.157Z,19.31
2018-06-25T12:15:02.183Z,19.29
2018-06-25T12:17:28.301Z,19.31
2018-06-25T12:19:54.364Z,19.34
2018-06-25T12:22:20.316Z,19.34
2018-06-25T12:24:46.322Z,19.37
2018-06-25T12:27:12.343Z,19.39
2018-06-25T12:29:38.370Z,19.36
2018-06-25T12:32:04.392Z,19.41
2018-06-25T12:34:30.411Z,19.40
2018-06-25T12:36:56.387Z,19.34
2018-06-25T12:39:22.491Z,19.40
2018-06-25T12:41:48.491Z,19.41
2018-06-25T12:44:14.501Z,19.48
2018-06-25T12:46:40.491Z,19.52
2018-06-25T12:49:06.584Z,19.60
2018-06-25T12:51:32.766Z,19.59
2018-06-25T12:53:58.833Z,19.62
2018-06-25T12:56:24.787Z,19.64
2018-06-25T12:58:50.781Z,19.61
2018-06-25T13:01:16.883Z,19.56
2018-06-25T13:03:42.954Z,19.54
2018-06-25T13:06:08.954Z,19.55
2018-06-25T13:08:35.001Z,19.55
2018-06-25T13:11:01.006Z,19.58
2018-06-25T13:13:27.046Z,19.58
2018-06-25T13:15:53.066Z,19.66
2018-06-25T13:18:19.187Z,19.66
2018-06-25T13:20:45.314Z,19.65
2018-06-25T13:23:11.270Z,19.69
2018-06-25T13:25:37.300Z,19.72
2018-06-25T13:28:03.369Z,19.71
2018-06-25T13:30:29.397Z,19.75
2018-06-25T13:32:55.408Z,19.74
2018-06-25T13:35:21.458Z,19.72
2018-06-25T13:37:47.476Z,19.69
2018-06-25T13:40:14.153Z,19.68
2018-06-25T13:42:40.212Z,19.73
2018-06-25T13:45:07.121Z,19.79
2018-06-25T13:47:33.203Z,19.78
2018-06-25T13:49:59.236Z,19.77
2018-06-25T13:52:25.268Z,19.78
2018-06-25T13:54:51.269Z,19.79
2018-06-25T13:57:17.320Z,19.84
2018-06-25T13:59:43.309Z,19.86
2018-06-25T14:02:09.367Z,19.82
2018-06-25T14:07:07.937Z,19.79
2018-06-25T14:09:33.948Z,19.83
2018-06-25T14:12:00.010Z,19.91
2018-06-25T14:14:26.017Z,19.89
2018-06-25T14:16:52.169Z,19.92
2018-06-25T14:19:18.122Z,19.99
2018-06-25T14:21:44.155Z,19.98
2018-06-25T14:24:10.233Z,20.03
2018-06-25T14:26:36.253Z,19.93
2018-06-25T14:29:02.238Z,19.90
2018-06-25T14:31:28.246Z,19.87
2018-06-25T14:33:54.228Z,19.86
2018-06-25T14:36:20.318Z,19.86
2018-06-25T14:38:46.303Z,19.89
2018-06-25T14:41:12.326Z,19.90
2018-06-25T14:43:38.504Z,19.96
2018-06-25T14:46:04.574Z,19.98
2018-06-25T14:48:30.672Z,20.00
2018-06-25T14:50:56.663Z,20.07
2018-06-25T14:53:22.659Z,20.09
2018-06-25T14:55:48.659Z,20.12
2018-06-25T14:58:14.647Z,20.12
2018-06-25T15:00:40.716Z,20.15
2018-06-25T15:03:06.927Z,20.12
2018-06-25T15:05:32.965Z,20.12
2018-06-25T15:07:58.973Z,20.14
2018-06-25T15:10:24.961Z,20.17
2018-06-25T15:12:50.944Z,20.11
2018-06-25T15:15:16.970Z,20.17
2018-06-25T15:17:42.982Z,20.21
2018-06-25T15:20:09.060Z,20.16
2018-06-25T15:22:35.077Z,20.18
2018-06-25T15:25:01.197Z,20.19
2018-06-25T15:27:27.398Z,20.19
2018-06-25T15:29:53.456Z,20.21
2018-06-25T15:32:19.502Z,20.19
2018-06-25T15:34:47.512Z,20.14
2018-06-25T15:39:50.026Z,20.13
2018-06-25T15:42:16.062Z,20.17
2018-06-25T15:44:42.116Z,20.17
2018-06-25T15:47:09.273Z,20.14
2018-06-25T15:49:41.153Z,20.10
2018-06-25T15:52:09.378Z,20.16
2018-06-25T15:54:35.444Z,20.17
2018-06-25T15:57:01.443Z,20.11
2018-06-25T15:59:27.895Z,20.14
2018-06-25T16:01:53.949Z,20.14
2018-06-25T16:04:19.986Z,20.13
2018-06-25T16:06:46.143Z,20.11
2018-06-25T16:09:12.201Z,20.13
2018-06-25T16:11:38.193Z,20.15
2018-06-25T16:14:04.188Z,20.14
2018-06-25T16:16:30.190Z,20.19
2018-06-25T16:21:28.641Z,20.07
2018-06-25T16:23:54.627Z,19.93
2018-06-25T16:26:20.590Z,19.88
2018-06-25T16:28:46.696Z,19.91
2018-06-25T16:31:12.692Z,19.90
2018-06-25T16:33:38.697Z,19.87
2018-06-25T16:36:05.762Z,19.87
2018-06-25T16:38:31.721Z,19.88
2018-06-25T16:40:57.895Z,19.85
2018-06-25T16:43:23.914Z,19.83
2018-06-25T16:45:50.039Z,19.81
2018-06-25T16:48:16.127Z,19.80
2018-06-25T16:50:42.193Z,19.79
2018-06-25T16:53:08.159Z,19.77
2018-06-25T16:55:34.390Z,19.79
2018-06-25T16:58:00.357Z,19.78
2018-06-25T17:00:26.380Z,19.74
2018-06-25T17:02:53.208Z,19.75
2018-06-25T17:05:19.202Z,19.74
2018-06-25T17:07:45.175Z,19.73
2018-06-25T17:10:11.204Z,19.70
2018-06-25T17:12:37.260Z,19.67
2018-06-25T17:15:03.523Z,19.72
2018-06-25T17:17:29.493Z,19.71
2018-06-25T17:19:55.512Z,19.66
2018-06-25T17:22:22.497Z,19.67
2018-06-25T17:24:48.537Z,19.69
2018-06-25T17:27:14.713Z,19.68
2018-06-25T17:29:40.877Z,19.68
2018-06-25T17:32:06.842Z,19.65
2018-06-25T17:34:32.910Z,19.62
2018-06-25T17:36:58.869Z,19.68
2018-06-25T17:39:25.816Z,19.66
2018-06-25T17:41:52.845Z,19.66
2018-06-25T17:44:19.845Z,19.67
2018-06-25T17:46:45.829Z,19.66
2018-06-25T17:49:11.941Z,19.68
2018-06-25T17:51:37.930Z,19.68
2018-06-25T17:54:03.978Z,19.65
2018-06-25T17:56:29.986Z,19.64
2018-06-25T17:58:56.031Z,19.60
2018-06-25T18:03:54.096Z,19.58
2018-06-25T18:06:20.396Z,19.55
2018-06-25T18:08:46.395Z,19.52
2018-06-25T18:11:12.630Z,19.49
2018-06-25T18:13:38.618Z,19.45
2018-06-25T18:16:04.605Z,19.43
2018-06-25T18:18:30.621Z,19.48
2018-06-25T18:20:56.735Z,19.44
2018-06-25T18:23:22.681Z,19.39
2018-06-25T18:25:48.622Z,19.36
2018-06-25T18:28:14.599Z,19.41
2018-06-25T18:30:40.588Z,19.37
2018-06-25T18:33:06.698Z,19.42
2018-06-25T18:35:32.707Z,19.39
2018-06-25T18:37:58.675Z,19.37
2018-06-25T18:40:24.803Z,19.34
2018-06-25T18:42:50.827Z,19.39
2018-06-25T18:45:17.170Z,19.37
2018-06-25T18:47:43.111Z,19.21
2018-06-25T18:50:09.065Z,19.19
2018-06-25T18:52:35.017Z,19.07
2018-06-25T18:55:00.977Z,19.01
2018-06-25T18:57:26.977Z,18.96
2018-06-25T18:59:52.948Z,18.88
2018-06-25T19:02:19.035Z,18.91
2018-06-25T19:04:45.006Z,18.92
2018-06-25T19:07:11.105Z,18.87
2018-06-25T19:09:37.087Z,18.91
2018-06-25T19:12:03.102Z,18.88
2018-06-25T19:14:29.113Z,18.83
2018-06-25T19:16:55.119Z,18.80
2018-06-25T19:19:21.087Z,18.72
2018-06-25T19:21:47.167Z,18.77
2018-06-25T19:24:13.200Z,18.77
2018-06-25T19:26:39.232Z,18.67
2018-06-25T19:29:05.251Z,18.67
2018-06-25T19:31:31.333Z,18.60
2018-06-25T19:33:57.337Z,18.57
2018-06-25T19:36:23.336Z,18.57
2018-06-25T19:38:49.429Z,18.57
2018-06-25T19:41:15.461Z,18.56
2018-06-25T19:43:41.472Z,18.56
2018-06-25T19:46:07.459Z,18.49
2018-06-25T19:48:34.467Z,18.44
2018-06-25T19:51:00.558Z,18.48
2018-06-25T19:53:27.709Z,18.46
2018-06-25T19:55:53.761Z,18.47
2018-06-25T19:58:19.884Z,18.48
2018-06-25T20:00:45.849Z,18.49
2018-06-25T20:03:12.836Z,18.49
2018-06-25T20:05:39.175Z,18.51
2018-06-25T20:08:05.498Z,18.46
2018-06-25T20:10:33.470Z,18.40
2018-06-25T20:12:59.647Z,18.44
2018-06-25T20:15:25.671Z,18.53
2018-06-25T20:17:51.650Z,18.48
2018-06-25T20:20:17.642Z,18.39
2018-06-25T20:22:43.674Z,18.36
2018-06-25T20:25:09.687Z,18.33
2018-06-25T20:27:35.649Z,18.39
2018-06-25T20:30:04.170Z,18.24
2018-06-25T20:32:31.267Z,18.25
2018-06-25T20:34:58.244Z,18.31
2018-06-25T20:37:24.257Z,18.26
2018-06-25T20:39:50.241Z,18.30
2018-06-25T20:42:16.204Z,18.26
2018-06-25T20:44:42.179Z,18.26
2018-06-25T20:47:08.136Z,18.26
2018-06-25T20:49:34.169Z,18.27
2018-06-25T20:52:00.158Z,18.24
2018-06-25T20:54:26.108Z,18.27
2018-06-25T20:56:52.182Z,18.40
2018-06-25T20:59:18.229Z,18.49
2018-06-25T21:01:45.357Z,18.55
2018-06-25T21:04:11.342Z,18.59
2018-06-25T21:06:38.382Z,18.63
2018-06-25T21:09:04.476Z,18.67
2018-06-25T21:11:30.528Z,18.68
2018-06-25T21:13:56.495Z,18.63
2018-06-25T21:16:22.529Z,18.64
2018-06-25T21:18:48.489Z,18.71
2018-06-25T21:21:14.442Z,18.70
2018-06-25T21:23:40.425Z,18.82
2018-06-25T21:26:06.366Z,18.79
2018-06-25T21:28:32.351Z,18.82
2018-06-25T21:30:58.295Z,18.84
2018-06-25T21:33:24.259Z,18.85
2018-06-25T21:35:50.210Z,18.82
2018-06-25T21:38:16.168Z,18.83
2018-06-25T21:40:42.101Z,18.85
2018-06-25T21:43:08.059Z,18.85
2018-06-25T21:45:34.048Z,18.83
2018-06-25T21:48:00.000Z,18.82
2018-06-25T21:50:25.994Z,18.81
2018-06-25T21:52:51.953Z,18.85
2018-06-25T21:55:17.944Z,18.88
2018-06-25T21:57:43.925Z,18.78
2018-06-25T22:00:09.865Z,18.67
2018-06-25T22:02:35.845Z,18.69
2018-06-25T22:05:01.812Z,18.63
2018-06-25T22:07:27.766Z,18.62
2018-06-25T22:09:53.711Z,18.67
2018-06-25T22:12:19.667Z,18.62
2018-06-25T22:14:45.655Z,18.69
2018-06-25T22:17:11.610Z,18.68
2018-06-25T22:19:37.596Z,18.64
2018-06-25T22:22:03.590Z,18.60
2018-06-25T22:24:29.568Z,18.64
2018-06-25T22:26:55.545Z,18.66
2018-06-25T22:29:21.513Z,18.70
2018-06-25T22:31:47.464Z,18.54
2018-06-25T22:34:13.448Z,18.54
2018-06-25T22:36:39.407Z,18.67
2018-06-25T22:39:05.429Z,18.69
2018-06-25T22:41:31.371Z,18.60
2018-06-25T22:43:57.330Z,18.65
2018-06-25T22:46:23.282Z,18.71
2018-06-25T22:48:49.256Z,18.75
2018-06-25T22:51:15.258Z,18.71
2018-06-25T22:53:41.197Z,18.64
2018-06-25T22:56:07.181Z,18.64
2018-06-25T22:58:33.167Z,18.60
2018-06-25T23:00:59.174Z,18.60
2018-06-25T23:03:25.312Z,18.55
2018-06-25T23:05:51.381Z,18.57
2018-06-25T23:08:17.327Z,18.51
2018-06-25T23:10:43.295Z,18.58
2018-06-25T23:13:09.315Z,18.57
2018-06-25T23:15:35.254Z,18.49
2018-06-25T23:18:01.224Z,18.44
2018-06-25T23:20:27.220Z,18.47
2018-06-25T23:22:53.175Z,18.55
2018-06-25T23:25:19.155Z,18.44
2018-06-25T23:27:45.115Z,18.50
2018-06-25T23:30:11.088Z,18.61
2018-06-25T23:32:37.057Z,18.55
2018-06-25T23:35:03.026Z,18.52
2018-06-25T23:37:28.983Z,18.55
2018-06-25T23:39:54.943Z,18.37
2018-06-25T23:42:20.908Z,18.55
2018-06-25T23:44:46.849Z,18.51
2018-06-25T23:47:12.801Z,18.55
2018-06-25T23:49:38.753Z,18.53
2018-06-25T23:52:04.697Z,18.55
2018-06-25T23:54:30.649Z,18.59
2018-06-25T23:56:56.609Z,18.53
2018-06-25T23:59:22.576Z,18.50
